Time;durP1;ratioP1;P1;durP2;ratioP2;P2;SDS_P1;SDS_P2;PMS_P1;PMS_P2;Temp;Humidity;BMP_temperature;BMP_pressure;BME280_temperature;BME280_humidity;BME280_pressure;Samples;Min_cycle;Max_cycle;Signal;HPM_P1;HPM_P2
2022/03/02 00:01:48;;;;;;;26.40;17.27;;;;;;;6.82;55.96;102379.28;3571976;40;20067;-61
2022/03/02 00:04:14;;;;;;;28.55;17.60;;;;;;;6.82;56.15;102371.25;3574030;40;20055;-62
2022/03/02 00:06:40;;;;;;;29.17;17.63;;;;;;;6.82;56.33;102375.69;3573494;40;20102;-61
2022/03/02 00:09:06;;;;;;;25.83;17.08;;;;;;;6.74;56.27;102360.72;3580752;40;20059;-62
2022/03/02 00:11:31;;;;;;;26.63;17.58;;;;;;;6.78;55.69;102371.34;3570874;40;20330;-62
2022/03/02 00:14:00;;;;;;;27.15;17.40;;;;;;;6.72;55.18;102367.91;3572355;40;20052;-64
2022/03/02 00:16:28;;;;;;;28.60;17.88;;;;;;;6.69;55.66;102364.38;3571988;40;20055;-62
2022/03/02 00:18:56;;;;;;;27.17;17.67;;;;;;;6.71;56.02;102381.28;3573230;40;20064;-62
2022/03/02 00:21:22;;;;;;;28.95;17.25;;;;;;;6.66;56.09;102384.06;3570012;40;20122;-61
2022/03/02 00:23:47;;;;;;;27.73;18.02;;;;;;;6.40;55.52;102348.97;3571718;40;20292;-62
2022/03/02 00:26:13;;;;;;;27.73;17.50;;;;;;;6.47;55.11;102361.28;3573199;40;20116;-62
2022/03/02 00:28:39;;;;;;;30.02;17.85;;;;;;;6.40;55.42;102370.31;3571416;40;20073;-61
2022/03/02 00:31:05;;;;;;;28.08;17.98;;;;;;;6.29;55.35;102362.53;3571227;40;22145;-62
2022/03/02 00:33:31;;;;;;;29.75;16.88;;;;;;;6.25;55.42;102368.84;3572231;40;20048;-64
2022/03/02 00:35:57;;;;;;;25.70;16.52;;;;;;;6.11;55.17;102353.06;3573173;40;20055;-62
2022/03/02 00:38:23;;;;;;;25.58;16.30;;;;;;;6.18;55.27;102381.41;3572926;40;20519;-60
2022/03/02 00:40:49;;;;;;;26.25;17.13;;;;;;;6.13;55.97;102377.97;3571921;40;20052;-62
2022/03/02 00:43:15;;;;;;;28.23;17.33;;;;;;;5.96;55.92;102342.66;3572093;40;20080;-62
2022/03/02 00:45:40;;;;;;;30.00;17.60;;;;;;;6.09;55.89;102372.69;3570964;40;20049;-62
2022/03/02 00:48:08;;;;;;;30.73;17.27;;;;;;;5.86;56.26;102336.59;3572257;40;20068;-62
2022/03/02 00:50:34;;;;;;;27.60;17.27;;;;;;;6.02;56.27;102362.13;3572148;40;20402;-62
2022/03/02 00:53:00;;;;;;;28.45;18.05;;;;;;;5.98;56.90;102356.88;3571652;40;20378;-62
2022/03/02 00:55:26;;;;;;;27.80;17.77;;;;;;;5.92;57.02;102357.84;3573199;40;20044;-62
2022/03/02 00:57:51;;;;;;;29.10;18.00;;;;;;;5.96;55.83;102367.59;3571495;40;20423;-62
2022/03/02 01:00:18;;;;;;;28.55;16.95;;;;;;;5.90;55.33;102369.44;3572575;40;20065;-62
2022/03/02 01:02:46;;;;;;;28.67;17.40;;;;;;;5.84;55.90;102362.44;3571590;40;20104;-61
2022/03/02 01:05:12;;;;;;;30.35;17.42;;;;;;;5.84;56.05;102358.91;3570888;40;20055;-61
2022/03/02 01:07:39;;;;;;;27.55;18.23;;;;;;;5.82;56.86;102354.44;3571001;40;20353;-62
2022/03/02 01:10:07;;;;;;;31.38;18.30;;;;;;;5.59;56.74;102311.28;3572723;40;20418;-62
2022/03/02 01:12:34;;;;;;;28.42;18.08;;;;;;;5.81;57.07;102349.16;3570758;40;20118;-62
2022/03/02 01:15:02;;;;;;;28.17;17.30;;;;;;;5.76;56.03;102349.22;3570082;40;20078;-62
2022/03/02 01:17:28;;;;;;;26.25;17.38;;;;;;;5.75;56.94;102354.59;3571210;40;20063;-61
2022/03/02 01:19:53;;;;;;;29.42;18.52;;;;;;;5.69;57.97;102344.91;3571795;40;20053;-62
2022/03/02 01:22:19;;;;;;;29.83;18.48;;;;;;;5.57;57.27;102319.31;3572019;40;20122;-61
2022/03/02 01:24:45;;;;;;;30.10;17.75;;;;;;;5.63;57.26;102325.44;3569176;40;20065;-62
2022/03/02 01:27:11;;;;;;;30.17;18.00;;;;;;;5.52;58.16;102322.97;3570912;40;20079;-61
2022/03/02 01:29:37;;;;;;;27.83;17.50;;;;;;;5.58;57.85;102336.19;3571147;40;20100;-61
2022/03/02 01:32:07;;;;;;;29.00;17.45;;;;;;;5.47;57.63;102328.38;3570527;40;20045;-62
2022/03/02 01:34:34;;;;;;;27.88;17.17;;;;;;;5.51;57.75;102329.19;3571329;40;20061;-62
2022/03/02 01:37:01;;;;;;;27.25;17.92;;;;;;;5.47;58.21;102331.03;3571299;40;20071;-61
2022/03/02 01:39:27;;;;;;;26.90;17.42;;;;;;;5.45;57.69;102329.28;3571167;40;20150;-62
2022/03/02 01:41:53;;;;;;;30.13;17.20;;;;;;;5.36;57.60;102314.34;3571918;40;20460;-62
2022/03/02 01:44:19;;;;;;;25.88;16.65;;;;;;;5.39;56.96;102324.06;3572021;40;20049;-62
2022/03/02 01:46:45;;;;;;;26.88;16.95;;;;;;;5.37;57.35;102325.91;3571238;40;20123;-62
2022/03/02 01:49:11;;;;;;;27.65;17.20;;;;;;;5.34;57.14;102322.34;3571573;40;20077;-62
2022/03/02 01:51:38;;;;;;;25.50;16.10;;;;;;;5.28;57.02;102314.47;3570173;40;20049;-62
2022/03/02 01:54:06;;;;;;;27.38;16.77;;;;;;;5.28;56.44;102311.78;3571404;40;20402;-64
2022/03/02 01:56:35;;;;;;;26.10;17.15;;;;;;;5.30;56.77;102325.13;3569671;40;20411;-62
2022/03/02 01:59:03;;;;;;;29.40;17.00;;;;;;;5.30;57.52;102319.78;3571375;40;20381;-64
2022/03/02 02:01:29;;;;;;;27.13;16.45;;;;;;;5.07;57.13;102281.03;3570110;40;20044;-62
2022/03/02 02:03:55;;;;;;;27.17;17.10;;;;;;;5.20;57.40;102307.47;3571690;40;20102;-64
2022/03/02 02:06:21;;;;;;;28.00;17.25;;;;;;;5.24;57.48;102311.88;3573385;40;20408;-62
2022/03/02 02:08:47;;;;;;;27.85;16.85;;;;;;;5.17;56.78;102303.09;3572489;40;20127;-64
2022/03/02 02:11:14;;;;;;;26.52;16.65;;;;;;;5.11;57.56;102295.19;3572695;40;20060;-62
2022/03/02 02:13:40;;;;;;;30.60;16.35;;;;;;;5.18;57.33;102304.84;3572504;40;20060;-62
2022/03/02 02:16:08;;;;;;;27.92;16.98;;;;;;;5.17;57.20;102308.44;3572761;40;20053;-63
2022/03/02 02:18:34;;;;;;;28.45;16.92;;;;;;;5.15;57.17;102299.56;3574380;40;20126;-62
2022/03/02 02:21:07;;;;;;;26.90;16.23;;;;;;;5.08;57.58;102296.13;3574269;40;20110;-62
2022/03/02 02:23:34;;;;;;;29.40;17.60;;;;;;;5.03;57.86;102286.44;3572449;40;20045;-62
2022/03/02 02:26:00;;;;;;;29.63;16.73;;;;;;;5.10;57.35;102296.06;3571471;40;20053;-62
2022/03/02 02:28:29;;;;;;;23.52;15.43;;;;;;;5.10;57.46;102298.75;3572528;40;20100;-62
2022/03/02 02:30:58;;;;;;;27.98;15.85;;;;;;;4.93;56.91;102276.81;3572762;40;20068;-62
2022/03/02 02:33:25;;;;;;;28.08;16.27;;;;;;;5.08;56.86;102293.44;3572756;40;20082;-61
2022/03/02 02:35:51;;;;;;;26.75;17.35;;;;;;;5.07;57.10;102290.78;3573502;40;20048;-62
2022/03/02 02:38:21;;;;;;;24.67;15.82;;;;;;;5.11;57.14;102292.53;3573173;40;20037;-63
2022/03/02 02:40:49;;;;;;;26.02;16.10;;;;;;;5.02;56.03;102266.91;3573186;40;20103;-62
2022/03/02 02:43:17;;;;;;;25.33;15.73;;;;;;;5.13;56.92;102290.69;3572823;40;20048;-62
2022/03/02 02:45:43;;;;;;;25.02;16.15;;;;;;;5.15;56.40;102286.25;3569840;40;20471;-62
2022/03/02 02:48:09;;;;;;;24.55;15.43;;;;;;;5.11;55.63;102282.75;3574313;40;20057;-62
2022/03/02 02:50:36;;;;;;;26.52;16.55;;;;;;;4.77;56.49;102217.56;3570479;40;20056;-62
2022/03/02 02:53:07;;;;;;;26.10;16.58;;;;;;;5.13;56.27;102280.03;3573318;40;20613;-64
2022/03/02 02:55:34;;;;;;;26.83;15.88;;;;;;;5.15;56.71;102288.03;3570911;40;20049;-64
2022/03/02 02:58:02;;;;;;;33.25;16.42;;;;;;;5.07;56.33;102272.13;3572101;40;20049;-64
2022/03/02 03:00:32;;;;;;;25.77;16.55;;;;;;;5.12;56.48;102284.50;3572303;40;20048;-64
2022/03/02 03:03:00;;;;;;;27.40;15.57;;;;;;;5.12;56.33;102281.81;3571255;40;20127;-64
2022/03/02 03:05:30;;;;;;;27.52;15.95;;;;;;;5.13;56.60;102280.03;3571769;40;20044;-64
2022/03/02 03:08:00;;;;;;;26.83;16.65;;;;;;;5.16;56.93;102284.44;3570028;40;20124;-64
2022/03/02 03:10:25;;;;;;;25.27;15.32;;;;;;;5.08;56.22;102271.25;3571807;40;20045;-64
2022/03/02 03:12:52;;;;;;;26.35;15.65;;;;;;;5.15;55.29;102278.25;3573847;40;20592;-64
2022/03/02 03:15:21;;;;;;;24.73;16.05;;;;;;;5.17;56.08;102270.19;3573107;40;20118;-64
2022/03/02 03:17:48;;;;;;;25.60;16.02;;;;;;;5.15;55.48;102275.56;3570635;40;20057;-64
2022/03/02 03:20:18;;;;;;;23.75;15.45;;;;;;;5.02;55.79;102252.69;3579636;40;20366;-64
2022/03/02 03:22:44;;;;;;;25.73;15.88;;;;;;;5.12;55.82;102271.16;3572063;40;20049;-64
2022/03/02 03:25:12;;;;;;;25.73;15.93;;;;;;;5.15;55.48;102267.56;3573714;40;20056;-63
2022/03/02 03:27:40;;;;;;;25.67;15.02;;;;;;;5.15;55.74;102274.69;3572590;40;20064;-64
2022/03/02 03:30:08;;;;;;;25.65;14.55;;;;;;;5.16;55.42;102268.44;3573337;40;20058;-64
2022/03/02 03:32:34;;;;;;;26.02;15.77;;;;;;;4.97;54.93;102235.88;3573357;40;20416;-64
2022/03/02 03:35:03;;;;;;;25.73;15.45;;;;;;;5.12;54.88;102271.16;3572289;40;20362;-64
2022/03/02 03:37:29;;;;;;;25.48;14.60;;;;;;;5.02;54.55;102250.03;3571663;40;20049;-64
2022/03/02 03:39:55;;;;;;;25.02;14.73;;;;;;;4.70;54.37;102195.47;3571408;40;20060;-64
2022/03/02 03:42:23;;;;;;;28.88;15.98;;;;;;;5.15;54.62;102266.69;3572240;40;20052;-64
2022/03/02 03:44:49;;;;;;;26.55;15.35;;;;;;;5.17;54.23;102264.88;3571895;40;20103;-63
2022/03/02 03:47:15;;;;;;;24.35;15.35;;;;;;;5.13;54.39;102258.72;3572678;40;20090;-63
2022/03/02 03:49:40;;;;;;;28.10;16.35;;;;;;;4.93;54.20;102228.84;3571750;40;22009;-64
2022/03/02 03:52:07;;;;;;;24.17;15.23;;;;;;;5.03;54.92;102243.78;3573615;40;20395;-64
2022/03/02 03:54:32;;;;;;;25.67;14.70;;;;;;;5.14;54.09;102255.16;3572041;40;20049;-64
2022/03/02 03:56:58;;;;;;;25.08;14.35;;;;;;;5.08;53.65;102241.94;3573465;40;20075;-64
2022/03/02 03:59:24;;;;;;;21.35;13.90;;;;;;;5.16;53.55;102258.66;3572771;40;20052;-64
2022/03/02 04:01:49;;;;;;;24.23;15.18;;;;;;;5.17;54.31;102254.22;3573244;40;20049;-64
2022/03/02 04:04:15;;;;;;;21.05;14.30;;;;;;;5.16;54.71;102258.66;3573784;40;20380;-64
2022/03/02 04:06:40;;;;;;;23.67;14.65;;;;;;;5.12;54.45;102251.63;3571761;40;20064;-64
2022/03/02 04:09:06;;;;;;;23.17;13.88;;;;;;;5.10;54.72;102248.97;3570475;40;20067;-64
2022/03/02 04:11:32;;;;;;;25.80;14.35;;;;;;;5.06;54.10;102241.06;3567789;40;20069;-64
2022/03/02 04:13:58;;;;;;;27.30;15.18;;;;;;;5.14;53.35;102249.84;3570042;40;20064;-64
2022/03/02 04:16:23;;;;;;;22.58;14.23;;;;;;;5.10;53.91;102237.44;3570581;40;20236;-63
2022/03/02 04:18:49;;;;;;;22.85;14.40;;;;;;;5.08;53.75;102232.16;3570431;40;20766;-64
2022/03/02 04:21:15;;;;;;;23.05;14.43;;;;;;;5.15;53.26;102240.94;3571733;40;20045;-64
2022/03/02 04:23:41;;;;;;;21.98;13.57;;;;;;;5.14;53.43;102239.19;3568472;40;20068;-64
2022/03/02 04:26:07;;;;;;;21.58;13.95;;;;;;;5.10;53.28;102229.44;3570774;40;20056;-64
2022/03/02 04:28:32;;;;;;;25.95;14.60;;;;;;;5.13;53.33;102234.72;3570158;40;20049;-64
2022/03/02 04:30:58;;;;;;;20.38;14.05;;;;;;;5.08;52.69;102228.63;3569577;40;20063;-64
2022/03/02 04:33:24;;;;;;;23.15;13.90;;;;;;;4.99;52.39;102210.09;3570954;40;20052;-64
2022/03/02 04:35:49;;;;;;;22.90;13.88;;;;;;;5.11;52.82;102229.44;3570693;40;20288;-64
2022/03/02 04:38:15;;;;;;;24.50;13.77;;;;;;;5.05;52.50;102218.00;3572670;40;20072;-64
2022/03/02 04:40:42;;;;;;;20.23;13.50;;;;;;;4.92;52.55;102201.34;3569948;40;20056;-64
2022/03/02 04:43:08;;;;;;;24.92;14.10;;;;;;;4.82;52.86;102184.63;3569651;40;20540;-64
2022/03/02 04:45:34;;;;;;;24.60;14.18;;;;;;;4.98;52.49;102216.31;3569206;40;20049;-64
2022/03/02 04:48:01;;;;;;;23.17;14.15;;;;;;;4.96;53.66;102210.16;3569231;40;20056;-64
2022/03/02 04:50:28;;;;;;;22.58;13.65;;;;;;;5.00;54.34;102220.72;3570932;40;20053;-64
2022/03/02 04:52:56;;;;;;;25.70;14.20;;;;;;;4.97;53.88;102210.13;3571502;40;20084;-64
2022/03/02 04:55:23;;;;;;;20.17;13.13;;;;;;;4.98;53.76;102216.31;3570884;40;20045;-64
2022/03/02 04:57:56;;;;;;;25.67;14.70;;;;;;;4.87;53.48;102204.06;3571321;40;20045;-64
2022/03/02 05:00:27;;;;;;;24.20;13.60;;;;;;;4.89;53.89;102207.59;3571141;40;20099;-64
2022/03/02 05:02:56;;;;;;;21.33;13.82;;;;;;;4.91;53.12;102209.34;3571928;40;20300;-64
2022/03/02 05:05:25;;;;;;;22.42;13.45;;;;;;;4.88;53.37;102205.84;3568065;40;20052;-64
2022/03/02 05:07:51;;;;;;;22.35;12.65;;;;;;;4.88;53.13;102208.50;3568563;40;20385;-64
2022/03/02 05:10:21;;;;;;;24.80;13.23;;;;;;;4.86;53.22;102212.09;3571393;40;20068;-64
2022/03/02 05:12:47;;;;;;;19.27;12.02;;;;;;;4.81;52.59;102201.50;3571477;40;20081;-64
2022/03/02 05:15:15;;;;;;;23.88;13.40;;;;;;;4.81;52.47;102204.16;3571173;40;20049;-64
2022/03/02 05:17:44;;;;;;;22.85;14.10;;;;;;;4.83;52.98;102202.34;3570870;40;20061;-64
2022/03/02 05:20:13;;;;;;;23.52;13.13;;;;;;;4.84;52.70;102198.78;3571701;40;20450;-63
2022/03/02 05:22:39;;;;;;;22.13;13.43;;;;;;;4.84;53.31;102208.56;3570028;40;20061;-64
2022/03/02 05:25:08;;;;;;;21.30;13.20;;;;;;;4.69;53.40;102179.50;3570819;40;20075;-64
2022/03/02 05:27:35;;;;;;;23.38;13.77;;;;;;;4.78;53.10;102198.00;3567452;40;20424;-64
2022/03/02 05:30:03;;;;;;;21.70;13.50;;;;;;;4.79;52.89;102203.31;3572231;40;20049;-64
2022/03/02 05:32:29;;;;;;;21.25;12.68;;;;;;;4.78;52.98;102190.00;3568507;40;20052;-65
2022/03/02 05:34:54;;;;;;;25.30;13.57;;;;;;;4.79;53.05;102198.00;3568083;40;20057;-64
2022/03/02 05:37:20;;;;;;;19.80;12.93;;;;;;;4.82;53.44;102197.03;3566962;40;20053;-64
2022/03/02 05:39:46;;;;;;;19.85;13.75;;;;;;;4.79;52.87;102190.00;3572914;40;20392;-64
2022/03/02 05:42:11;;;;;;;21.27;12.32;;;;;;;4.80;51.99;102198.88;3572166;40;20049;-64
2022/03/02 05:44:37;;;;;;;19.95;12.38;;;;;;;4.78;52.58;102193.53;3570524;40;20576;-64
2022/03/02 05:47:04;;;;;;;21.10;12.27;;;;;;;4.75;51.57;102188.25;3570836;40;20059;-64
2022/03/02 05:49:30;;;;;;;22.02;13.20;;;;;;;4.79;52.53;102197.06;3572059;40;20055;-64
2022/03/02 05:51:55;;;;;;;24.88;13.75;;;;;;;4.73;52.28;102184.75;3571942;40;20057;-64
2022/03/02 05:54:21;;;;;;;26.73;13.57;;;;;;;4.75;51.84;102180.28;3571635;40;20114;-63
2022/03/02 05:56:47;;;;;;;22.30;13.27;;;;;;;4.78;51.68;102184.69;3572291;40;20388;-64
2022/03/02 05:59:15;;;;;;;21.45;12.77;;;;;;;4.57;51.75;102157.50;3573071;40;20053;-64
2022/03/02 06:01:44;;;;;;;20.42;12.70;;;;;;;4.80;52.36;102194.41;3571918;40;20065;-64
2022/03/02 06:04:12;;;;;;;20.52;12.80;;;;;;;4.79;51.89;102189.09;3571392;40;20056;-63
2022/03/02 06:06:39;;;;;;;20.92;12.55;;;;;;;4.74;52.15;102190.97;3571079;40;20053;-63
2022/03/02 06:09:08;;;;;;;20.08;12.07;;;;;;;4.69;51.46;102183.03;3572994;40;20125;-63
2022/03/02 06:11:37;;;;;;;19.95;12.95;;;;;;;4.57;51.96;102177.91;3568657;40;20118;-63
2022/03/02 06:14:04;;;;;;;20.33;13.10;;;;;;;4.70;51.76;102208.78;3570257;40;20119;-63
2022/03/02 06:16:30;;;;;;;21.13;12.30;;;;;;;4.57;52.02;102177.91;3568578;40;20053;-64
2022/03/02 06:18:55;;;;;;;22.23;12.55;;;;;;;4.67;51.66;102198.19;3571488;40;20065;-63
2022/03/02 06:21:27;;;;;;;21.55;12.73;;;;;;;4.61;51.44;102191.16;3571557;40;20061;-63
2022/03/02 06:23:54;;;;;;;23.27;12.07;;;;;;;4.63;51.74;102194.69;3571248;40;20053;-64
2022/03/02 06:26:22;;;;;;;20.48;12.52;;;;;;;4.58;52.16;102192.97;3571649;40;20069;-64
2022/03/02 06:28:49;;;;;;;20.58;12.25;;;;;;;4.60;51.28;102204.50;3572050;40;20099;-64
2022/03/02 06:31:16;;;;;;;20.17;11.70;;;;;;;4.64;51.55;102206.22;3571424;40;20057;-64
2022/03/02 06:33:42;;;;;;;19.70;12.60;;;;;;;4.20;51.73;102141.19;3571229;40;20377;-64
2022/03/02 06:36:08;;;;;;;20.35;12.65;;;;;;;4.61;51.28;102201.81;3571247;40;20068;-64
2022/03/02 06:38:34;;;;;;;21.42;12.57;;;;;;;4.64;51.28;102211.53;3572382;40;20048;-64
2022/03/02 06:41:30;;;;;;;23.08;12.55;;;;;;;4.62;51.19;102208.00;3572048;40;20052;-63
2022/03/02 06:44:19;;;;;;;19.02;11.50;;;;;;;4.64;50.80;102211.53;3571950;40;20049;-63
2022/03/02 06:47:09;;;;;;;21.73;12.23;;;;;;;4.60;51.58;102204.50;3572084;40;20123;-63
2022/03/02 06:50:01;;;;;;;23.02;12.10;;;;;;;4.63;51.32;102216.00;3570762;40;20335;-64
2022/03/02 06:52:37;;;;;;;21.02;11.82;;;;;;;4.63;51.36;102223.06;3571401;40;20059;-63
2022/03/02 06:55:09;;;;;;;19.70;11.80;;;;;;;4.09;51.53;102133.34;3572278;40;20423;-63
2022/03/02 06:57:36;;;;;;;19.85;11.55;;;;;;;4.64;50.60;102223.06;3572094;40;20074;-63
2022/03/02 07:00:18;;;;;;;18.88;11.68;;;;;;;4.69;51.29;102224.78;3572083;40;20045;-62
2022/03/02 07:02:58;;;;;;;20.67;11.90;;;;;;;4.68;51.68;102215.91;3569742;40;20049;-63
2022/03/02 07:05:25;;;;;;;22.00;12.13;;;;;;;4.56;51.53;102186.78;3571521;40;20410;-63
2022/03/02 07:07:51;;;;;;;21.88;13.13;;;;;;;4.76;50.90;102222.00;3567910;40;20049;-63
2022/03/02 07:10:17;;;;;;;21.17;12.00;;;;;;;4.76;50.55;102215.81;3569799;40;20053;-63
2022/03/02 07:12:43;;;;;;;20.52;11.27;;;;;;;4.82;50.16;102218.34;3570802;40;20068;-63
2022/03/02 07:15:11;;;;;;;20.00;11.35;;;;;;;4.92;50.05;102222.66;3570918;40;20116;-63
2022/03/02 07:17:39;;;;;;;20.55;11.98;;;;;;;4.75;49.59;102182.94;3569477;40;20084;-62
2022/03/02 07:20:11;;;;;;;19.50;11.70;;;;;;;4.86;49.38;102201.44;3572195;40;20048;-63
2022/03/02 07:22:47;;;;;;;23.98;12.30;;;;;;;5.02;49.42;102226.03;3571432;40;20081;-63
2022/03/02 07:25:24;;;;;;;21.58;11.73;;;;;;;5.10;49.38;102227.66;3568663;40;20044;-64
2022/03/02 07:27:50;;;;;;;19.15;11.55;;;;;;;5.17;49.30;102233.78;3572138;40;20045;-63
2022/03/02 07:30:16;;;;;;;20.48;11.80;;;;;;;5.15;49.69;102208.94;3572775;40;20057;-63
2022/03/02 07:32:45;;;;;;;22.88;11.82;;;;;;;5.37;48.81;102225.44;3570477;40;20060;-63
2022/03/02 07:35:14;;;;;;;19.90;11.70;;;;;;;5.54;48.61;102235.78;3572068;40;20050;-63
2022/03/02 07:37:42;;;;;;;19.27;11.77;;;;;;;5.70;47.28;102239.06;3568752;40;20084;-64
2022/03/02 07:40:10;;;;;;;16.98;11.27;;;;;;;5.81;47.66;102224.63;3569414;40;20053;-63
2022/03/02 07:42:37;;;;;;;17.70;11.90;;;;;;;6.01;47.48;102218.03;3570384;40;20044;-62
2022/03/02 07:45:05;;;;;;;18.15;11.07;;;;;;;6.09;45.85;102216.09;3569113;40;20033;-63
2022/03/02 07:47:31;;;;;;;20.95;11.70;;;;;;;6.23;46.13;102207.78;3573093;40;20055;-63
2022/03/02 07:49:57;;;;;;;21.10;11.73;;;;;;;6.27;45.74;102199.66;3571885;40;20057;-63
2022/03/02 07:52:29;;;;;;;18.52;11.50;;;;;;;6.43;45.37;102207.34;3573049;40;20065;-63
2022/03/02 07:55:02;;;;;;;19.80;11.43;;;;;;;6.28;44.96;102185.41;3573894;40;20053;-63
2022/03/02 07:57:30;;;;;;;20.50;11.65;;;;;;;6.49;45.64;102202.72;3573062;40;20052;-63
2022/03/02 07:59:58;;;;;;;17.33;11.38;;;;;;;6.66;44.60;102205.03;3573120;40;20758;-63
2022/03/02 08:02:27;;;;;;;20.33;11.43;;;;;;;6.90;44.23;102210.69;3573278;40;20304;-62
2022/03/02 08:04:54;;;;;;;21.55;11.60;;;;;;;7.12;44.56;102206.56;3573093;40;20053;-63
2022/03/02 08:07:21;;;;;;;17.70;10.98;;;;;;;7.31;43.86;102203.44;3572830;40;20049;-63
2022/03/02 08:09:51;;;;;;;19.52;11.55;;;;;;;7.48;43.01;102201.16;3569587;40;20107;-63
2022/03/02 08:12:21;;;;;;;17.33;11.63;;;;;;;7.66;42.20;102200.69;3569672;40;20052;-63
2022/03/02 08:14:49;;;;;;;18.25;12.23;;;;;;;7.81;41.72;102191.34;3570358;40;20084;-63
2022/03/02 08:17:17;;;;;;;19.67;11.10;;;;;;;8.07;41.96;102198.63;3579186;40;20308;-63
2022/03/02 08:19:43;;;;;;;15.68;10.80;;;;;;;8.26;41.31;102190.91;3570992;40;20049;-63
2022/03/02 08:22:19;;;;;;;22.67;11.55;;;;;;;8.46;41.24;102189.47;3572784;40;20091;-63
2022/03/02 08:25:10;;;;;;;22.67;13.07;;;;;;;8.74;39.67;102198.38;3571263;40;20110;-63
2022/03/02 08:27:39;;;;;;;23.08;11.35;;;;;;;8.96;40.18;102201.25;3568090;40;20044;-63
2022/03/02 08:30:09;;;;;;;17.90;11.48;;;;;;;9.04;39.17;102179.53;3571515;40;20126;-63
2022/03/02 08:32:47;;;;;;;16.40;10.82;;;;;;;9.31;38.10;102199.19;3570405;40;20053;-63
2022/03/02 08:35:14;;;;;;;17.55;11.45;;;;;;;9.42;39.27;102190.75;3572401;40;20056;-63
2022/03/02 08:37:42;;;;;;;16.20;10.48;;;;;;;9.51;38.56;102180.59;3570690;40;20041;-64
2022/03/02 08:40:10;;;;;;;19.20;11.90;;;;;;;9.68;37.11;102196.06;3572943;40;20049;-64
2022/03/02 08:42:36;;;;;;;17.10;11.57;;;;;;;9.75;38.55;102202.09;3571840;40;20063;-62
2022/03/02 08:45:04;;;;;;;17.83;11.48;;;;;;;9.89;37.85;102172.91;3572622;40;20100;-64
2022/03/02 08:47:31;;;;;;;18.40;11.57;;;;;;;10.29;37.80;102186.69;3572644;40;20056;-63
2022/03/02 08:49:57;;;;;;;18.95;11.85;;;;;;;10.62;37.11;102174.56;3570383;40;20048;-63
2022/03/02 08:52:31;;;;;;;17.92;11.73;;;;;;;10.67;36.40;102159.13;3617560;22;20071;-63
2022/03/02 08:55:04;;;;;;;18.75;11.07;;;;;;;10.96;35.92;102191.16;3588791;39;20124;-64
2022/03/02 08:57:32;;;;;;;16.75;11.05;;;;;;;10.67;35.06;102112.56;3593479;39;20039;-63
2022/03/02 08:59:59;;;;;;;16.52;11.43;;;;;;;11.20;34.73;102181.19;3593064;39;20052;-63
2022/03/02 09:02:29;;;;;;;15.95;11.23;;;;;;;11.51;35.62;102184.31;3589948;39;20307;-64
2022/03/02 09:05:00;;;;;;;20.33;11.10;;;;;;;11.73;33.36;102181.50;3581055;40;20070;-64
2022/03/02 09:07:26;;;;;;;16.30;11.23;;;;;;;11.85;32.58;102186.38;3581105;40;20063;-62
2022/03/02 09:09:52;;;;;;;17.90;11.10;;;;;;;11.90;33.70;102182.63;3580841;40;20072;-62
2022/03/02 09:12:18;;;;;;;18.42;10.18;;;;;;;12.06;32.72;102181.84;3581796;40;20063;-63
2022/03/02 09:14:44;;;;;;;15.10;10.40;;;;;;;12.20;32.08;102164.13;3582150;40;20099;-63
2022/03/02 09:17:10;;;;;;;15.00;10.23;;;;;;;12.37;31.63;102171.41;3581829;40;20055;-63
2022/03/02 09:19:36;;;;;;;13.63;9.50;;;;;;;12.39;31.13;102173.09;3571581;40;20096;-62
2022/03/02 09:22:04;;;;;;;14.15;9.85;;;;;;;12.39;31.02;102174.91;3582345;40;20068;-63
2022/03/02 09:24:31;;;;;;;16.50;9.93;;;;;;;12.49;30.81;102174.38;3582499;40;20091;-63
2022/03/02 09:27:02;;;;;;;17.40;10.85;;;;;;;12.62;31.31;102166.56;3582365;40;20056;-63
2022/03/02 09:29:30;;;;;;;14.88;10.02;;;;;;;12.84;31.99;102171.78;3583490;40;20115;-64
2022/03/02 09:31:58;;;;;;;14.02;10.20;;;;;;;13.02;31.47;102170.00;3583381;40;20407;-62
2022/03/02 09:34:30;;;;;;;15.23;10.50;;;;;;;13.19;30.88;102161.94;3582407;40;20092;-63
2022/03/02 09:36:59;;;;;;;14.73;9.75;;;;;;;13.35;30.26;102177.34;3580849;40;20302;-63
2022/03/02 09:39:26;;;;;;;14.60;9.85;;;;;;;13.43;30.61;102169.75;3580782;40;20041;-64
2022/03/02 09:42:02;;;;;;;14.18;9.18;;;;;;;13.35;29.34;102135.03;3583785;40;20060;-63
2022/03/02 09:44:58;;;;;;;14.27;9.50;;;;;;;13.55;29.52;102165.53;3580955;40;20073;-62
2022/03/02 09:47:27;;;;;;;12.43;9.05;;;;;;;13.63;28.35;102158.75;3578946;40;20074;-62
2022/03/02 09:49:57;;;;;;;14.27;9.60;;;;;;;13.63;28.83;102158.75;3579363;40;20080;-62
2022/03/02 09:52:24;;;;;;;14.82;10.07;;;;;;;13.57;27.96;102156.34;3582383;40;20371;-63
2022/03/02 09:54:57;;;;;;;15.73;10.05;;;;;;;13.48;27.50;102154.19;3573859;40;20421;-62
2022/03/02 09:57:24;;;;;;;13.35;9.63;;;;;;;12.85;27.94;102078.25;3582077;40;20053;-64
2022/03/02 09:59:55;;;;;;;13.52;9.40;;;;;;;13.27;27.88;102152.59;3583765;40;20040;-63
2022/03/02 10:02:32;;;;;;;15.60;10.02;;;;;;;13.27;28.36;102147.19;3579021;40;20048;-63
2022/03/02 10:05:09;;;;;;;14.77;9.48;;;;;;;13.32;28.56;102145.09;3582629;40;20089;-63
2022/03/02 10:07:40;;;;;;;16.10;9.25;;;;;;;13.31;29.17;102144.22;3579923;40;20059;-63
2022/03/02 10:10:22;;;;;;;15.63;9.15;;;;;;;12.91;27.87;102059.91;3570028;40;20092;-63
2022/03/02 10:12:51;;;;;;;12.50;8.85;;;;;;;13.65;28.83;102147.88;3577565;40;20283;-63
2022/03/02 10:15:18;;;;;;;13.20;9.32;;;;;;;13.85;28.00;102138.66;3580903;40;20053;-63
2022/03/02 10:17:49;;;;;;;12.88;9.57;;;;;;;13.89;27.00;102145.63;3577727;40;20052;-63
2022/03/02 10:20:21;;;;;;;11.95;9.70;;;;;;;14.00;28.32;102143.25;3581681;40;20066;-63
2022/03/02 10:23:05;;;;;;;15.52;9.73;;;;;;;14.19;28.05;102142.22;3581564;40;20104;-63
2022/03/02 10:25:38;;;;;;;11.63;9.32;;;;;;;14.33;27.62;102150.41;3576885;40;20055;-63
2022/03/02 10:28:07;;;;;;;15.00;10.18;;;;;;;14.49;28.22;102136.88;3577804;40;20549;-63
2022/03/02 10:30:41;;;;;;;13.63;9.73;;;;;;;14.62;28.29;102143.41;3581254;40;20093;-63
2022/03/02 10:33:22;;;;;;;13.40;10.10;;;;;;;14.76;27.88;102137.19;3580974;40;20083;-63
2022/03/02 10:36:06;;;;;;;14.50;10.23;;;;;;;14.89;27.25;102132.78;3582216;40;20090;-63
2022/03/02 10:39:00;;;;;;;16.17;9.57;;;;;;;14.79;26.84;102134.28;3582381;40;20056;-63
2022/03/02 10:41:32;;;;;;;15.88;10.32;;;;;;;14.76;26.96;102129.06;3581759;40;20071;-62
2022/03/02 10:44:27;;;;;;;13.73;9.90;;;;;;;14.74;26.11;102133.66;3582012;40;20056;-64
2022/03/02 10:47:03;;;;;;;14.43;9.68;;;;;;;14.99;27.31;102128.56;3576658;40;20060;-63
2022/03/02 10:49:34;;;;;;;12.52;9.20;;;;;;;15.15;26.17;102135.75;3582531;40;20051;-64
2022/03/02 10:52:03;;;;;;;13.25;9.48;;;;;;;15.08;27.25;102125.28;3581160;40;20075;-62
2022/03/02 10:54:33;;;;;;;11.82;9.50;;;;;;;15.30;25.95;102137.56;3581334;40;20060;-62
2022/03/02 10:57:03;;;;;;;11.30;8.90;;;;;;;15.44;25.85;102134.84;3581727;40;20316;-62
2022/03/02 10:59:31;;;;;;;13.77;9.45;;;;;;;15.52;26.16;102119.00;3575813;40;20048;-61
2022/03/02 11:02:01;;;;;;;14.13;9.30;;;;;;;15.64;25.68;102132.78;3579116;40;20063;-62
2022/03/02 11:04:33;;;;;;;12.23;9.43;;;;;;;15.71;25.53;102129.59;3581202;40;20047;-62
2022/03/02 11:07:03;;;;;;;13.80;9.73;;;;;;;15.76;25.59;102123.88;3582712;40;20125;-61
2022/03/02 11:09:34;;;;;;;13.50;9.63;;;;;;;15.93;25.96;102115.56;3577964;40;20048;-61
2022/03/02 11:12:01;;;;;;;14.00;9.18;;;;;;;15.97;26.09;102114.38;3579841;40;20067;-62
2022/03/02 11:14:27;;;;;;;15.68;9.95;;;;;;;15.89;24.56;102107.72;3579242;40;20068;-63
2022/03/02 11:17:16;;;;;;;14.02;9.57;;;;;;;15.93;25.62;102110.13;3579270;40;20051;-62
2022/03/02 11:19:46;;;;;;;14.55;9.88;;;;;;;16.06;25.65;102103.94;3580050;40;20112;-62
2022/03/02 11:22:22;;;;;;;12.50;9.52;;;;;;;16.13;25.84;102106.13;3579135;40;20280;-63
2022/03/02 11:24:56;;;;;;;18.05;10.23;;;;;;;16.06;24.29;102101.22;3571810;40;20071;-63